Aurora, Nebraska
Current Conditions -  °F | °C
As of 8:15 AM on Sunday 21 Dec 2014 (Local Time) from KAUH Reporting Station
Haze Haze  
Wind Chill: 26°   Ceiling: 200
Heat Index: 34°   Visibility: 1.2mi
Dew Point: 34°   Wind: 10mph
Humidity: 100%   Direction: 190°S
Pressure: 29.81"   Gusts: NA
Location:  40.87°N, 98°W
Report Text: KAUH 211415Z AUTO 19009KT 1 1/4SM BR OVC002 01/01 A2981 RMK AO2 T00110011
Loading
Personal Weather Stations






























Interactive Weather Map New forecast layout! Learn more

10-Day Weather Forecast

Advertisements
Track Severe Weather on mobile